Vernon, TX (76384)

5:58 AM CDT on July 25, 2016 (GMT -0500)
Vernon | | Change Station

Elev 1266 ft 34.23 °N, 99.28 °W | Updated 3 minutes ago

Clear
Clear
78 °F
Feels Like 78 °F
N
4
Wind Variable Wind from East

Today
High -- | Low -- °F
--% Chance of Precip.
Yesterday
High -- | Low -- °F
Precip. -- in
Pressure 29.99 in
Visibility 10.0 miles
Clouds Clear
Dew Point 65 °F
Humidity 63%
Rainfall 0.00 in
Snow Depth Not available.
6:43 AM 8:43 PM
Waning Gibbous, 67% visible
METAR KF05 251055Z AUTO 08003KT 10SM CLR 26/18 A2999 RMK AO1 T02570183
Pressure 29.99 in
Visibility 10.0 miles
Clouds Clear
Dew Point 65 °F
Humidity 63%
Rainfall 0.00 in
Snow Depth Not available.
6:43 AM 8:43 PM
Waning Gibbous, 67% visible
METAR KF05 251055Z AUTO 08003KT 10SM CLR 26/18 A2999 RMK AO1 T02570183

10-Day Weather Forecast

Almanac

Astronomy

Jul. 25, 2016 Rise Set
Actual Time
Civil Twilight
Nautical Twilight
Astronomical Twilight
Moon
Length of Visible Light
Length of Day
Tomorrow will be .
, % of the Moon is Illuminated

Today's Extremes

State Highs State Lows

Community

WunderPhotos

Upload Photos

1,927,291 photos uploaded!

WunderBlog® & News

Nearby

Air Quality

  Air Quality AQ Index Pollutant
Not available.

Snow Depth

Station Depth Elevation

Earthquake Activity

City Distance Mag. Time & Date
Minimum magnitude displayed is 2.5.

Coastal Water Temperatures

Place Temperature

Stations

Nearby Weather Stations

Station Location Temp. Windchill Dew Point Humidity Wind Precip. Elev Updated Type
                   

Watches & Warnings

There are currently no watches in effect.